Year Two K — FQ6678 — position and weather

sailwx.info

Track history (hours):
 
Tides and Currents Weather Stations Pressure Air Temp Water Temp Dewpoint Dewpoint Depression Visibility Wind Speed Wind Dir Waves Ship Positions

Year Two K

Last reported at 2017-Sep-17 12:56 UTC. Time now 2017-Sep-25 19:08 UTC.
Position N 47°28' W 003°10'.
Warning: this ship's position is 8 days out of date.

Length 12 m.

Type: Pleasure craft. MMSI: 227504690.

Date/timePositionNaut miles runAvg speedWind from/ knotsBaromVisibWave heightAir tempDewpointWater temp
2017-Sep-17 12:56N 47°28' W 003°10'3 7.5
2017-Sep-17 12:28N 47°30' W 003°14'3 7.2
2017-Sep-17 12:00N 47°32' W 003°18'3 6.7
2017-Sep-17 11:30N 47°34' W 003°22'5 0.1
2017-Sep-15 16:38N 47°39' W 003°27'2 4.0
2017-Sep-15 16:10N 47°38' W 003°24'1 3.7
2017-Sep-15 16:00N 47°38' W 003°23'3 5.4
2017-Sep-15 15:30N 47°39' W 003°20'2 3.5
2017-Sep-15 15:00N 47°38' W 003°18'3 6.1
2017-Sep-15 14:30N 47°36' W 003°16'3 5.8
2017-Sep-15 14:00N 47°33' W 003°14'2 4.1
2017-Sep-15 13:30N 47°32' W 003°11'2 4.4
2017-Sep-15 13:00N 47°30' W 003°10'  
Track history (hours):
 
Tides and Currents Weather Stations Pressure Air Temp Water Temp Dewpoint Dewpoint Depression Visibility Wind Speed Wind Dir Waves Ship Positions

Year Two K

Last reported at 2017-Sep-17 12:56 UTC. Time now 2017-Sep-25 19:08 UTC.
Position N 47°28' W 003°10'.
Warning: this ship's position is 8 days out of date.

Length 12 m.

Type: Pleasure craft. MMSI: 227504690.

Date/timePositionNaut miles runAvg speedWind from/ knotsBaromVisibWave heightAir tempDewpointWater temp
2017-Sep-17 12:56N 47°28' W 003°10'3 7.5
2017-Sep-17 12:28N 47°30' W 003°14'3 7.2
2017-Sep-17 12:00N 47°32' W 003°18'3 6.7
2017-Sep-17 11:30N 47°34' W 003°22'5 0.1
2017-Sep-15 16:38N 47°39' W 003°27'2 4.0
2017-Sep-15 16:10N 47°38' W 003°24'1 3.7
2017-Sep-15 16:00N 47°38' W 003°23'3 5.4
2017-Sep-15 15:30N 47°39' W 003°20'2 3.5
2017-Sep-15 15:00N 47°38' W 003°18'3 6.1
2017-Sep-15 14:30N 47°36' W 003°16'3 5.8
2017-Sep-15 14:00N 47°33' W 003°14'2 4.1
2017-Sep-15 13:30N 47°32' W 003°11'2 4.4
2017-Sep-15 13:00N 47°30' W 003°10'  

Dump ship's entire track history